sensor_id;sensor_type;location;lat;lon;timestamp;temperature;humidity
11540;DHT22;5826;54.756;9.192;2023-07-20T00:02:19;14.60;99.90
11540;DHT22;5826;54.756;9.192;2023-07-20T00:04:45;14.40;99.90
11540;DHT22;5826;54.756;9.192;2023-07-20T00:07:10;14.40;99.90
11540;DHT22;5826;54.756;9.192;2023-07-20T00:09:36;14.40;99.90
11540;DHT22;5826;54.756;9.192;2023-07-20T00:12:01;14.40;99.90
11540;DHT22;5826;54.756;9.192;2023-07-20T00:14:27;14.40;99.90
11540;DHT22;5826;54.756;9.192;2023-07-20T00:16:54;14.40;99.90
11540;DHT22;5826;54.756;9.192;2023-07-20T00:19:25;14.40;99.90
11540;DHT22;5826;54.756;9.192;2023-07-20T00:21:50;14.40;99.90
11540;DHT22;5826;54.756;9.192;2023-07-20T00:24:16;14.30;99.90
11540;DHT22;5826;54.756;9.192;2023-07-20T00:26:42;14.30;99.90
11540;DHT22;5826;54.756;9.192;2023-07-20T00:29:07;14.30;99.90
11540;DHT22;5826;54.756;9.192;2023-07-20T00:31:33;14.20;99.90
11540;DHT22;5826;54.756;9.192;2023-07-20T00:34:00;14.20;99.90
11540;DHT22;5826;54.756;9.192;2023-07-20T00:36:25;14.20;99.90
11540;DHT22;5826;54.756;9.192;2023-07-20T00:38:51;14.10;99.90
11540;DHT22;5826;54.756;9.192;2023-07-20T00:41:17;14.10;99.90
11540;DHT22;5826;54.756;9.192;2023-07-20T00:43:42;14.10;99.90
11540;DHT22;5826;54.756;9.192;2023-07-20T00:46:08;14.00;99.90
11540;DHT22;5826;54.756;9.192;2023-07-20T00:48:34;14.10;99.90
11540;DHT22;5826;54.756;9.192;2023-07-20T00:51:00;14.00;99.90
11540;DHT22;5826;54.756;9.192;2023-07-20T00:53:27;14.00;99.90
11540;DHT22;5826;54.756;9.192;2023-07-20T00:55:53;14.00;99.90
11540;DHT22;5826;54.756;9.192;2023-07-20T00:58:18;14.00;99.90
11540;DHT22;5826;54.756;9.192;2023-07-20T01:00:44;13.90;99.90
11540;DHT22;5826;54.756;9.192;2023-07-20T01:03:10;13.90;99.90
11540;DHT22;5826;54.756;9.192;2023-07-20T01:06:00;13.90;99.90
11540;DHT22;5826;54.756;9.192;2023-07-20T01:08:40;13.90;99.90
11540;DHT22;5826;54.756;9.192;2023-07-20T01:11:27;13.90;99.90
11540;DHT22;5826;54.756;9.192;2023-07-20T01:13:55;13.90;99.90
11540;DHT22;5826;54.756;9.192;2023-07-20T01:16:20;13.90;99.90
11540;DHT22;5826;54.756;9.192;2023-07-20T01:18:46;13.80;99.90
11540;DHT22;5826;54.756;9.192;2023-07-20T01:21:21;13.90;99.90
11540;DHT22;5826;54.756;9.192;2023-07-20T01:27:06;13.90;99.90
11540;DHT22;5826;54.756;9.192;2023-07-20T01:32:33;13.90;99.90
11540;DHT22;5826;54.756;9.192;2023-07-20T01:35:02;13.90;99.90
11540;DHT22;5826;54.756;9.192;2023-07-20T01:37:28;13.90;99.90
11540;DHT22;5826;54.756;9.192;2023-07-20T01:39:55;13.90;99.90
11540;DHT22;5826;54.756;9.192;2023-07-20T01:42:22;13.90;99.90
11540;DHT22;5826;54.756;9.192;2023-07-20T01:44:51;13.80;99.90
11540;DHT22;5826;54.756;9.192;2023-07-20T01:47:17;13.80;99.90
11540;DHT22;5826;54.756;9.192;2023-07-20T01:49:43;13.80;99.90
11540;DHT22;5826;54.756;9.192;2023-07-20T01:52:08;13.90;99.90
11540;DHT22;5826;54.756;9.192;2023-07-20T01:54:34;13.80;99.90
11540;DHT22;5826;54.756;9.192;2023-07-20T01:56:59;13.80;99.90
11540;DHT22;5826;54.756;9.192;2023-07-20T01:59:25;13.90;99.90
11540;DHT22;5826;54.756;9.192;2023-07-20T02:01:51;13.90;99.90
11540;DHT22;5826;54.756;9.192;2023-07-20T02:04:17;14.00;99.90
11540;DHT22;5826;54.756;9.192;2023-07-20T02:06:43;14.00;99.90
11540;DHT22;5826;54.756;9.192;2023-07-20T02:09:08;14.10;99.90
11540;DHT22;5826;54.756;9.192;2023-07-20T02:11:34;14.10;99.90
11540;DHT22;5826;54.756;9.192;2023-07-20T02:13:59;14.10;99.90
11540;DHT22;5826;54.756;9.192;2023-07-20T02:16:25;14.10;99.90
11540;DHT22;5826;54.756;9.192;2023-07-20T02:18:50;14.10;99.90
11540;DHT22;5826;54.756;9.192;2023-07-20T02:21:16;14.00;99.90
11540;DHT22;5826;54.756;9.192;2023-07-20T02:23:41;14.00;99.90
11540;DHT22;5826;54.756;9.192;2023-07-20T02:26:07;14.00;99.90
11540;DHT22;5826;54.756;9.192;2023-07-20T02:28:33;14.00;99.90
11540;DHT22;5826;54.756;9.192;2023-07-20T02:30:58;14.00;99.90
11540;DHT22;5826;54.756;9.192;2023-07-20T02:33:25;14.00;99.90
11540;DHT22;5826;54.756;9.192;2023-07-20T02:35:52;14.00;99.90
11540;DHT22;5826;54.756;9.192;2023-07-20T02:38:17;13.90;99.90
11540;DHT22;5826;54.756;9.192;2023-07-20T02:40:43;13.90;99.90
11540;DHT22;5826;54.756;9.192;2023-07-20T02:43:08;13.90;99.90
11540;DHT22;5826;54.756;9.192;2023-07-20T02:45:35;13.80;99.90
11540;DHT22;5826;54.756;9.192;2023-07-20T02:48:00;13.80;99.90
11540;DHT22;5826;54.756;9.192;2023-07-20T02:50:26;13.80;99.90
11540;DHT22;5826;54.756;9.192;2023-07-20T02:52:51;13.80;99.90
11540;DHT22;5826;54.756;9.192;2023-07-20T02:55:17;13.70;99.90
11540;DHT22;5826;54.756;9.192;2023-07-20T02:57:42;13.70;99.90
11540;DHT22;5826;54.756;9.192;2023-07-20T03:00:08;13.70;99.90
11540;DHT22;5826;54.756;9.192;2023-07-20T03:02:34;13.60;99.90
11540;DHT22;5826;54.756;9.192;2023-07-20T03:05:00;13.60;99.90
11540;DHT22;5826;54.756;9.192;2023-07-20T03:07:27;13.70;99.90
11540;DHT22;5826;54.756;9.192;2023-07-20T03:09:54;13.60;99.90
11540;DHT22;5826;54.756;9.192;2023-07-20T03:12:20;13.60;99.90
11540;DHT22;5826;54.756;9.192;2023-07-20T03:14:46;13.60;99.90
11540;DHT22;5826;54.756;9.192;2023-07-20T03:17:11;13.50;99.90
11540;DHT22;5826;54.756;9.192;2023-07-20T03:19:37;13.50;99.90
11540;DHT22;5826;54.756;9.192;2023-07-20T03:22:02;13.50;99.90
11540;DHT22;5826;54.756;9.192;2023-07-20T03:24:28;13.50;99.90
11540;DHT22;5826;54.756;9.192;2023-07-20T03:26:53;13.50;99.90
11540;DHT22;5826;54.756;9.192;2023-07-20T03:29:19;13.50;99.90
11540;DHT22;5826;54.756;9.192;2023-07-20T03:31:45;13.50;99.90
11540;DHT22;5826;54.756;9.192;2023-07-20T03:34:10;13.50;99.90
11540;DHT22;5826;54.756;9.192;2023-07-20T03:36:36;13.50;99.90
11540;DHT22;5826;54.756;9.192;2023-07-20T03:39:01;13.50;99.90
11540;DHT22;5826;54.756;9.192;2023-07-20T03:41:28;13.50;99.90
11540;DHT22;5826;54.756;9.192;2023-07-20T03:43:53;13.40;99.90
11540;DHT22;5826;54.756;9.192;2023-07-20T03:46:19;13.40;99.90
11540;DHT22;5826;54.756;9.192;2023-07-20T03:48:45;13.40;99.90
11540;DHT22;5826;54.756;9.192;2023-07-20T03:51:10;13.40;99.90
11540;DHT22;5826;54.756;9.192;2023-07-20T03:53:36;13.40;99.90
11540;DHT22;5826;54.756;9.192;2023-07-20T03:56:01;13.40;99.90
11540;DHT22;5826;54.756;9.192;2023-07-20T03:58:27;13.40;99.90
11540;DHT22;5826;54.756;9.192;2023-07-20T04:00:52;13.40;99.90
11540;DHT22;5826;54.756;9.192;2023-07-20T04:03:19;13.40;99.90
11540;DHT22;5826;54.756;9.192;2023-07-20T04:05:45;13.40;99.90
11540;DHT22;5826;54.756;9.192;2023-07-20T04:08:10;13.50;99.90
11540;DHT22;5826;54.756;9.192;2023-07-20T04:10:39;13.50;99.90
11540;DHT22;5826;54.756;9.192;2023-07-20T04:13:05;13.60;99.90
11540;DHT22;5826;54.756;9.192;2023-07-20T04:15:31;13.60;99.90
11540;DHT22;5826;54.756;9.192;2023-07-20T04:17:57;13.70;99.90
11540;DHT22;5826;54.756;9.192;2023-07-20T04:20:23;13.70;99.90
11540;DHT22;5826;54.756;9.192;2023-07-20T04:22:49;13.70;99.90
11540;DHT22;5826;54.756;9.192;2023-07-20T04:25:15;13.70;99.90
11540;DHT22;5826;54.756;9.192;2023-07-20T04:27:40;13.80;99.90
11540;DHT22;5826;54.756;9.192;2023-07-20T04:30:09;13.90;99.90
11540;DHT22;5826;54.756;9.192;2023-07-20T04:32:35;14.00;99.90
11540;DHT22;5826;54.756;9.192;2023-07-20T04:35:05;14.10;99.90
11540;DHT22;5826;54.756;9.192;2023-07-20T04:37:30;14.10;99.90
11540;DHT22;5826;54.756;9.192;2023-07-20T04:39:56;14.20;99.90
11540;DHT22;5826;54.756;9.192;2023-07-20T04:42:21;14.20;99.90
11540;DHT22;5826;54.756;9.192;2023-07-20T04:44:47;14.20;99.90
11540;DHT22;5826;54.756;9.192;2023-07-20T04:47:12;14.20;99.90
11540;DHT22;5826;54.756;9.192;2023-07-20T04:49:38;14.30;99.90
11540;DHT22;5826;54.756;9.192;2023-07-20T04:52:04;14.30;99.90
11540;DHT22;5826;54.756;9.192;2023-07-20T04:54:30;14.30;99.90
11540;DHT22;5826;54.756;9.192;2023-07-20T04:56:55;14.30;99.90
11540;DHT22;5826;54.756;9.192;2023-07-20T04:59:21;14.30;99.90
11540;DHT22;5826;54.756;9.192;2023-07-20T05:01:46;14.30;99.90
11540;DHT22;5826;54.756;9.192;2023-07-20T05:04:12;14.30;99.90
11540;DHT22;5826;54.756;9.192;2023-07-20T05:06:37;14.30;99.90
11540;DHT22;5826;54.756;9.192;2023-07-20T05:09:04;14.30;99.90
11540;DHT22;5826;54.756;9.192;2023-07-20T05:11:30;14.40;99.90
11540;DHT22;5826;54.756;9.192;2023-07-20T05:13:56;14.40;99.90
11540;DHT22;5826;54.756;9.192;2023-07-20T05:16:21;14.40;99.90
11540;DHT22;5826;54.756;9.192;2023-07-20T05:18:47;14.50;99.90
11540;DHT22;5826;54.756;9.192;2023-07-20T05:21:13;14.50;99.90
11540;DHT22;5826;54.756;9.192;2023-07-20T05:23:39;14.60;99.90
11540;DHT22;5826;54.756;9.192;2023-07-20T05:26:04;14.70;99.90
11540;DHT22;5826;54.756;9.192;2023-07-20T05:28:30;14.70;99.90
11540;DHT22;5826;54.756;9.192;2023-07-20T05:30:55;14.80;99.90
11540;DHT22;5826;54.756;9.192;2023-07-20T05:33:21;14.80;99.90
11540;DHT22;5826;54.756;9.192;2023-07-20T05:35:47;14.90;99.90
11540;DHT22;5826;54.756;9.192;2023-07-20T05:38:13;15.00;99.90
11540;DHT22;5826;54.756;9.192;2023-07-20T05:40:43;15.90;99.90
11540;DHT22;5826;54.756;9.192;2023-07-20T05:43:09;15.00;99.90
11540;DHT22;5826;54.756;9.192;2023-07-20T05:45:34;15.10;99.90
11540;DHT22;5826;54.756;9.192;2023-07-20T05:48:00;15.20;99.90
11540;DHT22;5826;54.756;9.192;2023-07-20T05:50:26;15.30;99.90
11540;DHT22;5826;54.756;9.192;2023-07-20T05:52:55;15.30;99.90
11540;DHT22;5826;54.756;9.192;2023-07-20T05:55:20;15.40;99.90
11540;DHT22;5826;54.756;9.192;2023-07-20T05:57:46;15.50;99.90
11540;DHT22;5826;54.756;9.192;2023-07-20T06:00:13;15.50;99.90
11540;DHT22;5826;54.756;9.192;2023-07-20T06:02:39;15.60;99.90
11540;DHT22;5826;54.756;9.192;2023-07-20T06:05:06;15.60;99.90
11540;DHT22;5826;54.756;9.192;2023-07-20T06:07:35;15.60;99.90
11540;DHT22;5826;54.756;9.192;2023-07-20T06:10:01;15.60;99.90
11540;DHT22;5826;54.756;9.192;2023-07-20T06:12:27;15.70;99.90
11540;DHT22;5826;54.756;9.192;2023-07-20T06:14:53;15.80;99.90
11540;DHT22;5826;54.756;9.192;2023-07-20T06:17:19;15.90;99.90
11540;DHT22;5826;54.756;9.192;2023-07-20T06:19:44;15.90;99.90
11540;DHT22;5826;54.756;9.192;2023-07-20T06:22:10;16.00;99.90
11540;DHT22;5826;54.756;9.192;2023-07-20T06:24:35;16.10;99.90
11540;DHT22;5826;54.756;9.192;2023-07-20T06:27:01;16.10;99.90
11540;DHT22;5826;54.756;9.192;2023-07-20T06:29:26;16.20;99.90
11540;DHT22;5826;54.756;9.192;2023-07-20T06:31:52;16.10;99.90
11540;DHT22;5826;54.756;9.192;2023-07-20T06:34:17;16.10;99.90
11540;DHT22;5826;54.756;9.192;2023-07-20T06:36:43;16.20;99.90
11540;DHT22;5826;54.756;9.192;2023-07-20T06:39:08;16.10;99.90
11540;DHT22;5826;54.756;9.192;2023-07-20T06:41:34;16.10;99.90
11540;DHT22;5826;54.756;9.192;2023-07-20T06:43:59;16.20;99.90
11540;DHT22;5826;54.756;9.192;2023-07-20T06:46:25;16.20;99.90
11540;DHT22;5826;54.756;9.192;2023-07-20T06:48:51;16.30;99.90
11540;DHT22;5826;54.756;9.192;2023-07-20T06:51:16;16.20;99.90
11540;DHT22;5826;54.756;9.192;2023-07-20T06:53:43;16.20;99.90
11540;DHT22;5826;54.756;9.192;2023-07-20T06:56:08;16.20;99.90
11540;DHT22;5826;54.756;9.192;2023-07-20T06:58:34;16.10;99.90
11540;DHT22;5826;54.756;9.192;2023-07-20T07:01:05;16.00;99.90
11540;DHT22;5826;54.756;9.192;2023-07-20T07:03:30;16.00;99.90
11540;DHT22;5826;54.756;9.192;2023-07-20T07:05:56;16.30;99.90
11540;DHT22;5826;54.756;9.192;2023-07-20T07:08:21;16.20;99.90
11540;DHT22;5826;54.756;9.192;2023-07-20T07:10:47;16.50;99.90
11540;DHT22;5826;54.756;9.192;2023-07-20T07:13:12;16.70;99.90
11540;DHT22;5826;54.756;9.192;2023-07-20T07:15:38;16.80;99.90
11540;DHT22;5826;54.756;9.192;2023-07-20T07:18:03;16.80;99.90
11540;DHT22;5826;54.756;9.192;2023-07-20T07:20:29;16.80;99.90
11540;DHT22;5826;54.756;9.192;2023-07-20T07:22:55;16.80;99.90
11540;DHT22;5826;54.756;9.192;2023-07-20T07:25:22;16.70;99.90
11540;DHT22;5826;54.756;9.192;2023-07-20T07:27:47;16.60;99.90
11540;DHT22;5826;54.756;9.192;2023-07-20T07:30:13;16.50;99.90
11540;DHT22;5826;54.756;9.192;2023-07-20T07:32:39;16.40;99.90
11540;DHT22;5826;54.756;9.192;2023-07-20T07:35:05;16.40;99.90
11540;DHT22;5826;54.756;9.192;2023-07-20T07:37:30;16.50;99.90
11540;DHT22;5826;54.756;9.192;2023-07-20T07:39:56;16.50;99.90
11540;DHT22;5826;54.756;9.192;2023-07-20T07:42:22;16.60;99.90
11540;DHT22;5826;54.756;9.192;2023-07-20T07:44:48;16.60;99.90
11540;DHT22;5826;54.756;9.192;2023-07-20T07:47:14;16.80;99.90
11540;DHT22;5826;54.756;9.192;2023-07-20T07:49:39;17.00;99.90
11540;DHT22;5826;54.756;9.192;2023-07-20T07:52:05;17.20;99.90
11540;DHT22;5826;54.756;9.192;2023-07-20T07:54:31;17.40;99.90
11540;DHT22;5826;54.756;9.192;2023-07-20T07:56:56;17.50;99.90
11540;DHT22;5826;54.756;9.192;2023-07-20T07:59:22;17.50;99.90
11540;DHT22;5826;54.756;9.192;2023-07-20T08:01:48;17.40;99.90
11540;DHT22;5826;54.756;9.192;2023-07-20T08:04:14;17.30;99.90
11540;DHT22;5826;54.756;9.192;2023-07-20T08:06:40;17.10;99.90
11540;DHT22;5826;54.756;9.192;2023-07-20T08:09:05;17.10;99.90
11540;DHT22;5826;54.756;9.192;2023-07-20T08:11:32;17.10;99.90
11540;DHT22;5826;54.756;9.192;2023-07-20T08:14:00;17.20;99.90
11540;DHT22;5826;54.756;9.192;2023-07-20T08:16:26;17.30;99.90
11540;DHT22;5826;54.756;9.192;2023-07-20T08:18:51;17.40;99.90
11540;DHT22;5826;54.756;9.192;2023-07-20T08:21:17;17.50;99.90
11540;DHT22;5826;54.756;9.192;2023-07-20T08:23:42;17.70;99.90
11540;DHT22;5826;54.756;9.192;2023-07-20T08:26:08;17.70;99.90
11540;DHT22;5826;54.756;9.192;2023-07-20T08:28:34;17.70;99.90
11540;DHT22;5826;54.756;9.192;2023-07-20T08:30:59;17.70;99.90
11540;DHT22;5826;54.756;9.192;2023-07-20T08:33:25;17.60;99.90
11540;DHT22;5826;54.756;9.192;2023-07-20T08:35:50;17.60;99.90
11540;DHT22;5826;54.756;9.192;2023-07-20T08:38:16;17.70;99.90
11540;DHT22;5826;54.756;9.192;2023-07-20T08:40:43;17.80;99.90
11540;DHT22;5826;54.756;9.192;2023-07-20T08:43:14;17.90;99.90
11540;DHT22;5826;54.756;9.192;2023-07-20T08:45:42;18.00;99.90
11540;DHT22;5826;54.756;9.192;2023-07-20T08:48:08;18.10;99.90
11540;DHT22;5826;54.756;9.192;2023-07-20T08:50:35;18.00;99.90
11540;DHT22;5826;54.756;9.192;2023-07-20T08:53:01;18.00;99.90
11540;DHT22;5826;54.756;9.192;2023-07-20T08:55:28;18.00;99.90
11540;DHT22;5826;54.756;9.192;2023-07-20T08:57:58;17.90;99.90
11540;DHT22;5826;54.756;9.192;2023-07-20T09:00:25;17.90;99.90
11540;DHT22;5826;54.756;9.192;2023-07-20T09:02:53;18.00;99.90
11540;DHT22;5826;54.756;9.192;2023-07-20T09:05:23;18.20;99.90
11540;DHT22;5826;54.756;9.192;2023-07-20T09:07:49;18.30;99.90
11540;DHT22;5826;54.756;9.192;2023-07-20T09:10:15;18.70;99.90
11540;DHT22;5826;54.756;9.192;2023-07-20T09:12:42;18.50;99.90
11540;DHT22;5826;54.756;9.192;2023-07-20T09:15:09;18.60;99.90
11540;DHT22;5826;54.756;9.192;2023-07-20T09:17:35;18.50;99.90
11540;DHT22;5826;54.756;9.192;2023-07-20T09:20:05;18.70;99.90
11540;DHT22;5826;54.756;9.192;2023-07-20T09:22:37;18.60;99.90
11540;DHT22;5826;54.756;9.192;2023-07-20T09:25:26;18.60;99.90
11540;DHT22;5826;54.756;9.192;2023-07-20T09:27:52;18.70;99.90
11540;DHT22;5826;54.756;9.192;2023-07-20T09:30:17;18.70;99.90
11540;DHT22;5826;54.756;9.192;2023-07-20T09:32:49;18.70;99.90
11540;DHT22;5826;54.756;9.192;2023-07-20T09:35:20;18.80;99.90
11540;DHT22;5826;54.756;9.192;2023-07-20T09:37:59;18.90;99.90
11540;DHT22;5826;54.756;9.192;2023-07-20T09:40:25;19.00;99.90
11540;DHT22;5826;54.756;9.192;2023-07-20T09:42:55;19.10;99.90
11540;DHT22;5826;54.756;9.192;2023-07-20T09:45:39;19.10;99.90
11540;DHT22;5826;54.756;9.192;2023-07-20T09:48:10;19.20;99.90
11540;DHT22;5826;54.756;9.192;2023-07-20T09:51:01;19.20;99.90
11540;DHT22;5826;54.756;9.192;2023-07-20T09:53:27;19.30;99.90
11540;DHT22;5826;54.756;9.192;2023-07-20T09:55:54;19.40;99.90
11540;DHT22;5826;54.756;9.192;2023-07-20T09:58:19;19.40;99.90
11540;DHT22;5826;54.756;9.192;2023-07-20T10:00:46;19.40;99.90
11540;DHT22;5826;54.756;9.192;2023-07-20T10:03:20;19.90;99.90
11540;DHT22;5826;54.756;9.192;2023-07-20T10:06:15;19.40;99.90
11540;DHT22;5826;54.756;9.192;2023-07-20T10:08:39;19.50;99.90
11540;DHT22;5826;54.756;9.192;2023-07-20T10:11:07;19.50;99.90
11540;DHT22;5826;54.756;9.192;2023-07-20T10:13:38;19.60;99.90
11540;DHT22;5826;54.756;9.192;2023-07-20T10:16:10;19.70;99.90
11540;DHT22;5826;54.756;9.192;2023-07-20T10:18:51;19.80;99.90
11540;DHT22;5826;54.756;9.192;2023-07-20T10:21:20;19.90;99.90
11540;DHT22;5826;54.756;9.192;2023-07-20T10:23:48;20.10;99.90
11540;DHT22;5826;54.756;9.192;2023-07-20T10:26:14;20.20;99.90
11540;DHT22;5826;54.756;9.192;2023-07-20T10:28:40;20.40;99.90
11540;DHT22;5826;54.756;9.192;2023-07-20T10:31:08;20.40;99.90
11540;DHT22;5826;54.756;9.192;2023-07-20T10:33:35;20.40;99.90
11540;DHT22;5826;54.756;9.192;2023-07-20T10:36:03;20.50;99.90
11540;DHT22;5826;54.756;9.192;2023-07-20T10:38:51;20.70;99.90
11540;DHT22;5826;54.756;9.192;2023-07-20T10:41:19;20.70;99.90
11540;DHT22;5826;54.756;9.192;2023-07-20T10:43:45;20.50;99.90
11540;DHT22;5826;54.756;9.192;2023-07-20T10:46:14;20.40;99.90
11540;DHT22;5826;54.756;9.192;2023-07-20T10:49:07;20.30;99.90
11540;DHT22;5826;54.756;9.192;2023-07-20T10:51:43;20.20;99.90
11540;DHT22;5826;54.756;9.192;2023-07-20T10:56:46;20.70;99.90
11540;DHT22;5826;54.756;9.192;2023-07-20T11:01:57;21.10;99.90
11540;DHT22;5826;54.756;9.192;2023-07-20T11:04:40;21.10;99.90
11540;DHT22;5826;54.756;9.192;2023-07-20T11:07:06;21.20;99.90
11540;DHT22;5826;54.756;9.192;2023-07-20T11:09:38;21.20;99.90
11540;DHT22;5826;54.756;9.192;2023-07-20T11:14:56;21.10;99.90
11540;DHT22;5826;54.756;9.192;2023-07-20T11:17:32;21.00;99.90
11540;DHT22;5826;54.756;9.192;2023-07-20T11:19:59;20.80;99.90
11540;DHT22;5826;54.756;9.192;2023-07-20T11:22:26;20.50;99.90
11540;DHT22;5826;54.756;9.192;2023-07-20T11:24:55;20.50;99.90
11540;DHT22;5826;54.756;9.192;2023-07-20T11:27:21;20.60;99.90
11540;DHT22;5826;54.756;9.192;2023-07-20T11:29:48;20.90;99.90
11540;DHT22;5826;54.756;9.192;2023-07-20T11:32:20;21.20;99.90
11540;DHT22;5826;54.756;9.192;2023-07-20T11:34:48;21.40;99.90
11540;DHT22;5826;54.756;9.192;2023-07-20T11:37:13;21.60;99.90
11540;DHT22;5826;54.756;9.192;2023-07-20T11:39:39;21.50;99.90
11540;DHT22;5826;54.756;9.192;2023-07-20T11:42:05;21.30;99.90
11540;DHT22;5826;54.756;9.192;2023-07-20T11:44:30;21.00;99.90
11540;DHT22;5826;54.756;9.192;2023-07-20T11:47:22;21.00;99.90
11540;DHT22;5826;54.756;9.192;2023-07-20T11:49:54;21.00;99.90
11540;DHT22;5826;54.756;9.192;2023-07-20T11:52:22;21.00;99.90
11540;DHT22;5826;54.756;9.192;2023-07-20T11:54:48;21.40;99.90
11540;DHT22;5826;54.756;9.192;2023-07-20T11:57:17;21.30;99.90
11540;DHT22;5826;54.756;9.192;2023-07-20T11:59:57;21.50;99.90
11540;DHT22;5826;54.756;9.192;2023-07-20T12:02:24;21.60;99.90
11540;DHT22;5826;54.756;9.192;2023-07-20T12:04:54;21.50;99.90
11540;DHT22;5826;54.756;9.192;2023-07-20T12:07:19;21.40;99.90
11540;DHT22;5826;54.756;9.192;2023-07-20T12:10:02;21.20;99.90
11540;DHT22;5826;54.756;9.192;2023-07-20T12:12:28;21.10;99.90
11540;DHT22;5826;54.756;9.192;2023-07-20T12:14:53;21.20;99.90
11540;DHT22;5826;54.756;9.192;2023-07-20T12:17:19;21.10;99.90
11540;DHT22;5826;54.756;9.192;2023-07-20T12:19:45;21.10;99.90
11540;DHT22;5826;54.756;9.192;2023-07-20T12:22:10;21.00;99.90
11540;DHT22;5826;54.756;9.192;2023-07-20T12:24:36;20.80;99.90
11540;DHT22;5826;54.756;9.192;2023-07-20T12:27:03;20.70;99.90
11540;DHT22;5826;54.756;9.192;2023-07-20T12:29:29;20.60;99.90
11540;DHT22;5826;54.756;9.192;2023-07-20T12:31:54;20.60;99.90
11540;DHT22;5826;54.756;9.192;2023-07-20T12:34:20;20.60;99.90
11540;DHT22;5826;54.756;9.192;2023-07-20T12:36:45;20.70;99.90
11540;DHT22;5826;54.756;9.192;2023-07-20T12:39:11;20.60;99.90
11540;DHT22;5826;54.756;9.192;2023-07-20T12:41:36;20.50;99.90
11540;DHT22;5826;54.756;9.192;2023-07-20T12:44:02;20.50;99.90
11540;DHT22;5826;54.756;9.192;2023-07-20T12:46:27;20.80;99.90
11540;DHT22;5826;54.756;9.192;2023-07-20T12:48:55;21.40;99.90
11540;DHT22;5826;54.756;9.192;2023-07-20T12:51:20;22.10;99.90
11540;DHT22;5826;54.756;9.192;2023-07-20T12:53:46;22.50;99.90
11540;DHT22;5826;54.756;9.192;2023-07-20T12:56:11;22.80;99.90
11540;DHT22;5826;54.756;9.192;2023-07-20T12:58:37;22.90;99.90
11540;DHT22;5826;54.756;9.192;2023-07-20T13:01:02;22.80;99.90
11540;DHT22;5826;54.756;9.192;2023-07-20T13:03:28;22.60;99.90
11540;DHT22;5826;54.756;9.192;2023-07-20T13:05:53;22.20;99.90
11540;DHT22;5826;54.756;9.192;2023-07-20T13:08:19;21.80;99.90
11540;DHT22;5826;54.756;9.192;2023-07-20T13:10:45;21.40;99.90
11540;DHT22;5826;54.756;9.192;2023-07-20T13:13:10;21.10;99.90
11540;DHT22;5826;54.756;9.192;2023-07-20T13:15:43;20.80;99.90
11540;DHT22;5826;54.756;9.192;2023-07-20T13:18:09;20.40;99.90
11540;DHT22;5826;54.756;9.192;2023-07-20T13:20:35;20.00;99.90
11540;DHT22;5826;54.756;9.192;2023-07-20T13:23:00;19.70;99.90
11540;DHT22;5826;54.756;9.192;2023-07-20T13:25:26;19.30;99.90
11540;DHT22;5826;54.756;9.192;2023-07-20T13:27:52;19.30;99.90
11540;DHT22;5826;54.756;9.192;2023-07-20T13:30:18;19.30;99.90
11540;DHT22;5826;54.756;9.192;2023-07-20T13:32:44;19.60;99.90
11540;DHT22;5826;54.756;9.192;2023-07-20T13:35:10;20.10;99.90
11540;DHT22;5826;54.756;9.192;2023-07-20T13:37:36;20.40;99.90
11540;DHT22;5826;54.756;9.192;2023-07-20T13:40:01;20.50;99.90
11540;DHT22;5826;54.756;9.192;2023-07-20T13:42:29;20.60;99.90
11540;DHT22;5826;54.756;9.192;2023-07-20T13:44:55;20.80;99.90
11540;DHT22;5826;54.756;9.192;2023-07-20T13:47:20;21.20;99.90
11540;DHT22;5826;54.756;9.192;2023-07-20T13:49:46;21.80;99.90
11540;DHT22;5826;54.756;9.192;2023-07-20T13:52:11;22.50;99.90
11540;DHT22;5826;54.756;9.192;2023-07-20T13:54:37;23.10;99.90
11540;DHT22;5826;54.756;9.192;2023-07-20T13:57:03;23.30;99.90
11540;DHT22;5826;54.756;9.192;2023-07-20T13:59:28;22.80;99.90
11540;DHT22;5826;54.756;9.192;2023-07-20T14:01:54;22.30;99.90
11540;DHT22;5826;54.756;9.192;2023-07-20T14:04:19;21.70;99.90
11540;DHT22;5826;54.756;9.192;2023-07-20T14:06:45;21.10;99.90
11540;DHT22;5826;54.756;9.192;2023-07-20T14:09:10;20.80;99.90
11540;DHT22;5826;54.756;9.192;2023-07-20T14:11:36;20.60;99.90
11540;DHT22;5826;54.756;9.192;2023-07-20T14:14:01;20.90;99.90
11540;DHT22;5826;54.756;9.192;2023-07-20T14:16:27;21.10;99.90
11540;DHT22;5826;54.756;9.192;2023-07-20T14:18:52;21.40;99.90
11540;DHT22;5826;54.756;9.192;2023-07-20T14:21:19;21.70;99.90
11540;DHT22;5826;54.756;9.192;2023-07-20T14:23:46;21.80;99.90
11540;DHT22;5826;54.756;9.192;2023-07-20T14:26:12;22.10;99.90
11540;DHT22;5826;54.756;9.192;2023-07-20T14:28:37;22.60;99.90
11540;DHT22;5826;54.756;9.192;2023-07-20T14:31:03;22.90;99.90
11540;DHT22;5826;54.756;9.192;2023-07-20T14:33:29;23.00;99.90
11540;DHT22;5826;54.756;9.192;2023-07-20T14:35:54;22.70;99.90
11540;DHT22;5826;54.756;9.192;2023-07-20T14:38:20;22.70;99.90
11540;DHT22;5826;54.756;9.192;2023-07-20T14:40:45;22.90;99.90
11540;DHT22;5826;54.756;9.192;2023-07-20T14:43:11;23.40;99.90
11540;DHT22;5826;54.756;9.192;2023-07-20T14:45:36;23.80;99.90
11540;DHT22;5826;54.756;9.192;2023-07-20T14:48:03;24.00;99.90
11540;DHT22;5826;54.756;9.192;2023-07-20T14:50:29;24.20;99.90
11540;DHT22;5826;54.756;9.192;2023-07-20T14:52:54;24.10;99.90
11540;DHT22;5826;54.756;9.192;2023-07-20T14:55:20;24.30;99.90
11540;DHT22;5826;54.756;9.192;2023-07-20T14:57:46;24.40;99.90
11540;DHT22;5826;54.756;9.192;2023-07-20T15:00:13;24.50;99.90
11540;DHT22;5826;54.756;9.192;2023-07-20T15:02:40;24.20;99.90
11540;DHT22;5826;54.756;9.192;2023-07-20T15:05:09;23.40;99.90
11540;DHT22;5826;54.756;9.192;2023-07-20T15:07:36;22.70;99.90
11540;DHT22;5826;54.756;9.192;2023-07-20T15:10:02;22.10;99.90
11540;DHT22;5826;54.756;9.192;2023-07-20T15:12:29;21.70;99.90
11540;DHT22;5826;54.756;9.192;2023-07-20T15:15:08;21.20;99.90
11540;DHT22;5826;54.756;9.192;2023-07-20T15:17:35;20.80;99.90
11540;DHT22;5826;54.756;9.192;2023-07-20T15:20:01;20.60;99.90
11540;DHT22;5826;54.756;9.192;2023-07-20T15:22:30;20.40;99.90
11540;DHT22;5826;54.756;9.192;2023-07-20T15:24:56;20.20;99.90
11540;DHT22;5826;54.756;9.192;2023-07-20T15:27:21;20.20;99.90
11540;DHT22;5826;54.756;9.192;2023-07-20T15:29:48;20.20;99.90
11540;DHT22;5826;54.756;9.192;2023-07-20T15:32:14;20.30;99.90
11540;DHT22;5826;54.756;9.192;2023-07-20T15:34:42;20.30;99.90
11540;DHT22;5826;54.756;9.192;2023-07-20T15:37:08;20.30;99.90
11540;DHT22;5826;54.756;9.192;2023-07-20T15:39:33;20.30;99.90
11540;DHT22;5826;54.756;9.192;2023-07-20T15:41:59;20.20;99.90
11540;DHT22;5826;54.756;9.192;2023-07-20T15:44:24;20.10;99.90
11540;DHT22;5826;54.756;9.192;2023-07-20T15:46:50;19.90;99.90
11540;DHT22;5826;54.756;9.192;2023-07-20T15:49:16;19.70;99.90
11540;DHT22;5826;54.756;9.192;2023-07-20T15:51:41;19.70;99.90
11540;DHT22;5826;54.756;9.192;2023-07-20T15:54:10;19.90;99.90
11540;DHT22;5826;54.756;9.192;2023-07-20T15:56:37;20.50;99.90
11540;DHT22;5826;54.756;9.192;2023-07-20T15:59:03;21.00;99.90